createdAt,value
2023-04-14T00:00:59.839Z,99.90
2023-04-14T00:06:07.506Z,99.90
2023-04-14T00:11:17.061Z,99.90
2023-04-14T00:16:41.189Z,99.90
2023-04-14T00:21:49.369Z,99.90
2023-04-14T00:27:28.970Z,99.90
2023-04-14T00:32:41.583Z,99.90
2023-04-14T00:37:48.385Z,99.90
2023-04-14T00:43:07.604Z,99.90
2023-04-14T00:48:23.115Z,99.90
2023-04-14T00:53:28.929Z,99.90
2023-04-14T00:58:33.894Z,99.90
2023-04-14T01:03:42.494Z,99.90
2023-04-14T01:08:53.717Z,99.90
2023-04-14T01:14:31.100Z,99.90
2023-04-14T01:20:11.404Z,99.90
2023-04-14T01:25:49.976Z,99.90
2023-04-14T01:31:42.832Z,99.90
2023-04-14T01:37:32.469Z,99.90
2023-04-14T01:42:41.986Z,99.90
2023-04-14T01:47:55.277Z,99.90
2023-04-14T01:53:09.968Z,99.90
2023-04-14T01:58:21.278Z,99.90
2023-04-14T02:03:53.098Z,99.90
2023-04-14T02:09:11.139Z,99.90
2023-04-14T02:19:48.817Z,99.90
2023-04-14T02:24:59.212Z,99.90
2023-04-14T02:30:45.930Z,99.90
2023-04-14T02:36:23.859Z,99.90
2023-04-14T02:41:42.514Z,99.90
2023-04-14T02:46:56.980Z,99.90
2023-04-14T02:52:07.204Z,99.90
2023-04-14T02:57:10.069Z,99.90
2023-04-14T03:02:19.242Z,99.90
2023-04-14T03:07:32.689Z,99.90
2023-04-14T03:12:46.619Z,99.90
2023-04-14T03:17:58.995Z,99.90
2023-04-14T03:23:11.658Z,99.90
2023-04-14T03:28:37.832Z,99.90
2023-04-14T03:33:58.390Z,99.90
2023-04-14T03:39:16.096Z,99.90
2023-04-14T03:44:33.349Z,99.90
2023-04-14T03:49:46.759Z,99.90
2023-04-14T03:54:55.141Z,99.90
2023-04-14T04:00:13.411Z,99.90
2023-04-14T04:05:22.824Z,99.90
2023-04-14T04:10:43.794Z,99.90
2023-04-14T04:16:09.870Z,99.90
2023-04-14T04:21:17.187Z,99.90
2023-04-14T04:26:26.140Z,99.90
2023-04-14T04:31:37.718Z,99.90
2023-04-14T04:36:49.955Z,99.90
2023-04-14T04:42:09.211Z,99.90
2023-04-14T04:47:16.970Z,99.90
2023-04-14T04:52:42.929Z,99.90
2023-04-14T04:57:52.693Z,99.90
2023-04-14T05:03:01.675Z,99.90
2023-04-14T05:08:15.412Z,99.90
2023-04-14T05:13:25.426Z,99.90
2023-04-14T05:24:03.758Z,99.90
2023-04-14T05:29:17.020Z,99.90
2023-04-14T05:34:21.155Z,99.90
2023-04-14T05:39:25.866Z,99.90
2023-04-14T05:45:02.799Z,99.90
2023-04-14T05:50:22.452Z,99.90
2023-04-14T05:55:25.100Z,99.90
2023-04-14T06:00:28.275Z,99.90
2023-04-14T06:05:43.386Z,99.90
2023-04-14T06:11:03.792Z,99.90
2023-04-14T06:22:01.745Z,99.90
2023-04-14T06:27:23.521Z,99.90
2023-04-14T06:32:43.372Z,99.90
2023-04-14T06:38:16.862Z,99.90
2023-04-14T06:43:31.708Z,99.90
2023-04-14T06:48:43.635Z,99.90
2023-04-14T06:54:18.286Z,99.90
2023-04-14T06:59:52.390Z,99.90
2023-04-14T07:04:58.458Z,99.90
2023-04-14T07:10:08.272Z,99.90
2023-04-14T07:15:39.274Z,99.90
2023-04-14T07:21:09.405Z,99.90
2023-04-14T07:27:49.921Z,99.90
2023-04-14T07:33:33.139Z,99.90
2023-04-14T07:44:45.394Z,99.90
2023-04-14T07:50:19.834Z,99.90
2023-04-14T07:55:56.705Z,99.90
2023-04-14T08:01:27.888Z,99.90
2023-04-14T08:06:58.292Z,99.90
2023-04-14T08:12:35.149Z,99.90
2023-04-14T08:18:11.802Z,99.90
2023-04-14T08:23:40.885Z,99.90
2023-04-14T08:29:01.759Z,99.90
2023-04-14T08:34:06.739Z,99.90
2023-04-14T08:39:33.056Z,99.90
2023-04-14T08:44:52.826Z,99.90
2023-04-14T08:50:08.827Z,97.80
2023-04-14T08:55:22.413Z,98.60
2023-04-14T09:00:32.110Z,98.00
2023-04-14T09:05:43.355Z,96.10
2023-04-14T09:10:47.087Z,93.60
2023-04-14T09:16:08.266Z,95.60
2023-04-14T09:21:49.742Z,92.60
2023-04-14T09:26:47.007Z,93.00
2023-04-14T09:31:50.629Z,93.20
2023-04-14T09:37:13.304Z,92.80
2023-04-14T09:42:47.279Z,92.30
2023-04-14T09:48:07.152Z,91.90
2023-04-14T09:53:13.418Z,93.20
2023-04-14T09:58:25.341Z,94.10
2023-04-14T10:03:38.322Z,91.90
2023-04-14T10:08:48.784Z,92.30
2023-04-14T10:13:57.261Z,92.40
2023-04-14T10:19:00.843Z,88.00
2023-04-14T10:24:07.307Z,84.90
2023-04-14T10:29:18.364Z,84.90
2023-04-14T10:34:42.729Z,82.50
2023-04-14T10:39:57.246Z,79.80
2023-04-14T10:45:08.551Z,79.40
2023-04-14T10:50:22.271Z,76.80
2023-04-14T10:55:28.213Z,68.30
2023-04-14T11:00:47.054Z,69.40
2023-04-14T11:05:55.823Z,73.40
2023-04-14T11:11:05.798Z,73.10
2023-04-14T11:16:09.555Z,72.50
2023-04-14T11:21:16.263Z,74.70
2023-04-14T11:26:26.211Z,76.40
2023-04-14T11:31:32.268Z,82.10
2023-04-14T11:36:39.334Z,79.10
2023-04-14T11:41:56.169Z,79.50
2023-04-14T11:47:01.950Z,81.90
2023-04-14T11:52:09.369Z,83.00
2023-04-14T11:57:15.140Z,83.50
2023-04-14T12:02:22.115Z,86.00
2023-04-14T12:07:29.946Z,84.70
2023-04-14T12:12:33.744Z,86.50
2023-04-14T12:17:37.359Z,83.50
2023-04-14T12:22:41.799Z,84.20
2023-04-14T12:27:51.879Z,85.20
2023-04-14T12:32:56.889Z,82.70
2023-04-14T12:38:00.746Z,80.50
2023-04-14T12:43:03.390Z,77.90
2023-04-14T12:48:13.079Z,79.30
2023-04-14T12:53:26.810Z,80.80
2023-04-14T12:58:31.008Z,81.90
2023-04-14T13:04:05.637Z,82.60
2023-04-14T13:09:13.808Z,83.80
2023-04-14T13:14:16.682Z,84.70
2023-04-14T13:19:19.176Z,83.30
2023-04-14T13:24:22.796Z,83.80
2023-04-14T13:29:35.192Z,83.50
2023-04-14T13:34:39.364Z,80.70
2023-04-14T13:39:41.953Z,82.30
2023-04-14T13:44:44.992Z,85.30
2023-04-14T13:49:48.463Z,84.50
2023-04-14T13:54:51.484Z,89.00
2023-04-14T13:59:54.858Z,86.80
2023-04-14T14:04:59.883Z,88.00
2023-04-14T14:10:04.316Z,87.90
2023-04-14T14:15:15.262Z,90.00
2023-04-14T14:20:21.435Z,90.50
2023-04-14T14:25:25.189Z,90.40
2023-04-14T14:30:27.875Z,90.60
2023-04-14T14:35:31.198Z,91.70
2023-04-14T14:40:36.042Z,92.70
2023-04-14T14:45:46.747Z,92.80
2023-04-14T14:50:54.394Z,93.30
2023-04-14T14:56:01.743Z,93.10
2023-04-14T15:01:06.079Z,93.80
2023-04-14T15:06:10.947Z,93.10
2023-04-14T15:11:13.714Z,94.00
2023-04-14T15:16:16.844Z,92.50
2023-04-14T15:21:19.747Z,95.40
2023-04-14T15:26:22.575Z,93.40
2023-04-14T15:31:25.626Z,94.50
2023-04-14T15:36:29.133Z,95.90
2023-04-14T15:41:32.090Z,96.30
2023-04-14T15:46:34.574Z,96.60
2023-04-14T15:51:41.601Z,96.10
2023-04-14T15:56:47.465Z,97.60
2023-04-14T16:01:51.528Z,97.50
2023-04-14T16:06:55.312Z,98.10
2023-04-14T16:11:58.546Z,97.20
2023-04-14T16:17:01.364Z,97.70
2023-04-14T16:22:08.931Z,98.80
2023-04-14T16:27:12.460Z,99.70
2023-04-14T16:32:15.016Z,99.90
2023-04-14T16:37:17.616Z,99.90
2023-04-14T16:42:28.160Z,99.90
2023-04-14T16:47:30.986Z,99.90
2023-04-14T16:52:35.370Z,99.90
2023-04-14T16:57:39.457Z,99.90
2023-04-14T17:02:51.873Z,99.90
2023-04-14T17:07:54.805Z,99.90
2023-04-14T17:12:57.632Z,99.90
2023-04-14T17:18:00.627Z,99.90
2023-04-14T17:23:03.954Z,99.90
2023-04-14T17:33:14.027Z,99.90
2023-04-14T17:38:28.089Z,99.90
2023-04-14T17:43:31.223Z,99.90
2023-04-14T17:48:34.803Z,99.90
2023-04-14T17:53:37.978Z,99.90
2023-04-14T17:58:42.432Z,99.90
2023-04-14T18:03:45.919Z,99.90
2023-04-14T18:08:48.981Z,99.90
2023-04-14T18:13:53.451Z,99.90
2023-04-14T18:19:01.336Z,99.90
2023-04-14T18:29:18.617Z,99.90
2023-04-14T18:34:40.817Z,99.90
2023-04-14T18:39:46.027Z,99.90
2023-04-14T18:49:59.422Z,99.90
2023-04-14T18:55:05.555Z,99.90
2023-04-14T19:00:25.655Z,99.90
2023-04-14T19:06:08.951Z,99.90
2023-04-14T19:11:32.283Z,99.90
2023-04-14T19:16:36.181Z,99.90
2023-04-14T19:21:40.822Z,99.90
2023-04-14T19:27:10.855Z,99.90
2023-04-14T19:32:16.332Z,99.90
2023-04-14T19:37:45.952Z,99.90
2023-04-14T19:42:58.669Z,99.90
2023-04-14T19:48:22.552Z,99.90
2023-04-14T19:58:44.453Z,99.90
2023-04-14T20:04:04.940Z,99.90
2023-04-14T20:09:12.679Z,99.90
2023-04-14T20:19:19.540Z,99.90
2023-04-14T20:25:11.957Z,99.90
2023-04-14T20:30:16.135Z,99.90
2023-04-14T20:35:19.899Z,99.90
2023-04-14T20:40:26.521Z,99.90
2023-04-14T20:45:35.504Z,99.90
2023-04-14T20:50:54.928Z,99.90
2023-04-14T20:55:58.213Z,99.90
2023-04-14T21:01:03.010Z,99.90
2023-04-14T21:06:19.874Z,99.90
2023-04-14T21:11:25.331Z,99.90
2023-04-14T21:16:50.407Z,99.90
2023-04-14T21:22:02.525Z,99.90
2023-04-14T21:27:08.758Z,99.90
2023-04-14T21:37:20.344Z,99.90
2023-04-14T21:42:32.821Z,99.90
2023-04-14T21:47:40.247Z,99.90
2023-04-14T21:52:43.832Z,99.90
2023-04-14T21:57:51.131Z,99.90
2023-04-14T22:02:58.343Z,99.90
2023-04-14T22:08:01.964Z,99.90
2023-04-14T22:13:05.374Z,99.90
2023-04-14T22:18:11.943Z,99.90
2023-04-14T22:23:25.925Z,99.90
2023-04-14T22:28:31.826Z,99.90
2023-04-14T22:33:37.115Z,99.90
2023-04-14T22:38:42.853Z,99.90
2023-04-14T22:43:45.810Z,99.90
2023-04-14T22:48:48.382Z,99.90
2023-04-14T23:09:02.990Z,99.90
2023-04-14T23:14:06.150Z,99.90
2023-04-14T23:19:16.581Z,99.90
2023-04-14T23:24:19.770Z,99.90
2023-04-14T23:29:22.931Z,99.90
2023-04-14T23:34:25.704Z,99.90
2023-04-14T23:39:30.809Z,99.90
2023-04-14T23:44:39.640Z,99.90
2023-04-14T23:49:46.666Z,99.90
